| time (UTC) | temp F | wind direction | speed MPH | gust MPH | rain 1hr in | rain 24hr in | rain mn in | humidity % | barometer mb |
| 20260502162532 | 72 | 0.0 | 0.0 | 0.00 | 0.00 | 0.00 | 26 | 1020.0 | |
| 20260502161535 | 73 | 0.0 | 0.0 | 0.00 | 0.00 | 0.00 | 26 | 1020.0 | |
| 20260502160528 | 73 | 0.0 | 0.0 | 0.00 | 0.00 | 0.00 | 26 | 1020.0 | |
| 20260502151529 | 74 | 0.0 | 0.0 | 0.00 | 0.00 | 0.00 | 27 | 1021.1 | |
| 20260502150544 | 74 | 0.0 | 0.0 | 0.00 | 0.00 | 0.00 | 27 | 1021.1 | |
| 20260502130527 | 73 | 0.0 | 0.0 | 0.00 | 0.00 | 0.00 | 27 | 1022.2 | |
| 20260502123621 | 72 | 0.0 | 0.0 | 0.00 | 0.00 | 0.00 | 26 | 1022.2 | |
| 20260502122530 | 72 | 0.0 | 0.0 | 0.00 | 0.00 | 0.00 | 25 | 1022.2 | |
| 20260502121554 | 72 | 0.0 | 0.0 | 0.00 | 0.00 | 0.00 | 26 | 1022.2 | |
| 20260502120526 | 72 | 0.0 | 0.0 | 0.00 | 0.00 | 0.00 | 27 | 1022.2 | |
| 20260502115545 | 71 | 0.0 | 0.0 | 0.00 | 0.00 | 0.00 | 26 | 1022.2 | |
| 20260502114532 | 71 | 0.0 | 0.0 | 0.00 | 0.00 | 0.00 | 26 | 1022.2 | |
| 20260502113539 | 70 | 0.0 | 0.0 | 0.00 | 0.00 | 0.00 | 27 | 1022.2 | |
| 20260502112531 | 69 | 0.0 | 0.0 | 0.00 | 0.00 | 0.00 | 26 | 1022.2 | |
| 20260502111540 | 69 | 0.0 | 0.0 | 0.00 | 0.00 | 0.00 | 26 | 1022.2 | |
| 20260502110538 | 70 | 0.0 | 0.0 | 0.00 | 0.00 | 0.00 | 26 | 1022.2 | |
| 20260502105534 | 70 | 0.0 | 0.0 | 0.00 | 0.00 | 0.00 | 28 | 1022.2 | |
| 20260502104527 | 69 | 0.0 | 0.0 | 0.00 | 0.00 | 0.00 | 28 | 1022.2 | |
| 20260502103550 | 68 | 0.0 | 0.0 | 0.00 | 0.00 | 0.00 | 27 | 1022.2 | |
| 20260502102530 | 68 | 0.0 | 0.0 | 0.00 | 0.00 | 0.00 | 28 | 1022.2 | |
| 20260502101528 | 68 | 0.0 | 0.0 | 0.00 | 0.00 | 0.00 | 30 | 1022.2 | |
| 20260502100526 | 67 | 0.0 | 0.0 | 0.00 | 0.00 | 0.00 | 31 | 1022.2 | |
| 20260502090536 | 66 | 0.0 | 0.0 | 0.00 | 0.00 | 0.00 | 35 | 1023.2 | |
| 20260502071535 | 59 | 0.0 | 0.0 | 0.00 | 0.00 | 0.00 | 52 | 1023.2 | |
| 20260502070534 | 58 | 0.0 | 0.0 | 0.00 | 0.00 | 0.00 | 55 | 1023.2 | |
| 20260502065537 | 56 | 0.0 | 0.0 | 0.00 | 0.00 | 0.00 | 57 | 1023.2 | |
| 20260502064536 | 55 | 0.0 | 0.0 | 0.00 | 0.00 | 0.00 | 60 | 1023.2 | |
| 20260502063527 | 52 | 0.0 | 0.0 | 0.00 | 0.00 | 0.00 | 66 | 1023.2 | |
| 20260502062525 | 49 | 0.0 | 0.0 | 0.00 | 0.00 | 0.00 | 72 | 1023.2 | |
| 20260502061530 | 47 | 0.0 | 0.0 | 0.00 | 0.00 | 0.00 | 72 | 1023.2 | |
| 20260502060532 | 45 | 0.0 | 0.0 | 0.00 | 0.00 | 0.00 | 72 | 1023.2 | |
| 20260502055534 | 44 | 0.0 | 0.0 | 0.00 | 0.00 | 0.00 | 71 | 1023.2 | |
| 20260502054529 | 43 | 0.0 | 0.0 | 0.00 | 0.00 | 0.00 | 71 | 1023.2 | |
| 20260502053706 | 42 | 0.0 | 0.0 | 0.00 | 0.00 | 0.00 | 71 | 1023.2 | |
| 20260502052538 | 42 | 0.0 | 0.0 | 0.00 | 0.00 | 0.00 | 70 | 1022.2 | |
| 20260502051531 | 41 | 0.0 | 0.0 | 0.00 | 0.00 | 0.00 | 71 | 1022.3 | |
| 20260502050533 | 40 | 0.0 | 0.0 | 0.00 | 0.00 | 0.00 | 71 | 1023.2 | |
| 20260502045531 | 40 | 0.0 | 0.0 | 0.00 | 0.00 | 0.00 | 70 | 1022.2 | |
| 20260502044529 | 39 | 0.0 | 0.0 | 0.00 | 0.00 | 0.00 | 70 | 1022.2 | |
| 20260502043530 | 39 | 0.0 | 0.0 | 0.00 | 0.00 | 0.00 | 70 | 1022.2 | |
| 20260502042527 | 39 | 0.0 | 0.0 | 0.00 | 0.00 | 0.00 | 70 | 1022.2 | |
| 20260502041538 | 38 | 0.0 | 0.0 | 0.00 | 0.00 | 0.00 | 70 | 1022.2 | |
| 20260502040528 | 38 | 0.0 | 0.0 | 0.00 | 0.00 | 0.00 | 70 | 1022.2 | |
| 20260502035536 | 37 | 0.0 | 0.0 | 0.00 | 0.00 | 0.00 | 70 | 1022.2 | |
| 20260502034533 | 37 | 0.0 | 0.0 | 0.00 | 0.00 | 0.00 | 70 | 1022.2 | |
| 20260502033526 | 37 | 0.0 | 0.0 | 0.00 | 0.00 | 0.00 | 70 | 1022.2 | |
| 20260502032552 | 37 | 0.0 | 0.0 | 0.00 | 0.00 | 0.00 | 69 | 1022.2 | |
| 20260502031527 | 37 | 0.0 | 0.0 | 0.00 | 0.00 | 0.00 | 68 | 1022.2 | |
| 20260502030530 | 37 | 0.0 | 0.0 | 0.00 | 0.00 | 0.00 | 69 | 1023.2 | |
| 20260502025527 | 37 | 0.0 | 0.0 | 0.00 | 0.00 | 0.00 | 68 | 1023.2 | |
| 20260502024558 | 38 | 0.0 | 0.0 | 0.00 | 0.00 | 0.00 | 69 | 1023.2 | |
| 20260502023547 | 37 | 0.0 | 0.0 | 0.00 | 0.00 | 0.00 | 68 | 1023.2 | |
| 20260502022531 | 38 | 0.0 | 0.0 | 0.00 | 0.00 | 0.00 | 69 | 1023.2 | |
| 20260502021550 | 37 | 0.0 | 0.0 | 0.00 | 0.00 | 0.00 | 70 | 1023.2 | |
| 20260502020533 | 37 | 0.0 | 0.0 | 0.00 | 0.00 | 0.00 | 69 | 1023.2 | |
| 20260502015528 | 36 | 0.0 | 0.0 | 0.00 | 0.00 | 0.00 | 69 | 1023.2 | |
| 20260502014531 | 36 | 0.0 | 0.0 | 0.00 | 0.00 | 0.00 | 68 | 1023.2 | |
| 20260502013603 | 36 | 0.0 | 0.0 | 0.00 | 0.00 | 0.00 | 67 | 1023.2 | |
| 20260502012536 | 37 | 0.0 | 0.0 | 0.00 | 0.00 | 0.00 | 66 | 1023.2 | |
| 20260502011527 | 38 | 0.0 | 0.0 | 0.00 | 0.00 | 0.00 | 66 | 1023.2 | |
| 20260502010527 | 38 | 0.0 | 0.0 | 0.00 | 0.00 | 0.00 | 67 | 1023.2 | |
| 20260502005531 | 38 | 0.0 | 0.0 | 0.00 | 0.00 | 0.00 | 67 | 1023.2 | |
| 20260502004544 | 38 | 0.0 | 0.0 | 0.00 | 0.00 | 0.00 | 66 | 1023.2 | |
| 20260502003553 | 38 | 0.0 | 0.0 | 0.00 | 0.00 | 0.00 | 66 | 1023.2 | |
| 20260502002525 | 37 | 0.0 | 0.0 | 0.00 | 0.00 | 0.00 | 65 | 1023.2 | |
| 20260502001527 | 38 | 0.0 | 0.0 | 0.00 | 0.00 | 0.00 | 64 | 1023.4 | |
| 20260502000538 | 39 | 0.0 | 0.0 | 0.00 | 0.00 | 0.00 | 64 | 1024.3 | |
| 20260501235533 | 39 | 0.0 | 0.0 | 0.00 | 0.00 | 0.00 | 64 | 1024.3 | |
| 20260501234551 | 40 | 0.0 | 0.0 | 0.00 | 0.00 | 0.00 | 65 | 1024.3 | |
| 20260501233549 | 39 | 0.0 | 0.0 | 0.00 | 0.00 | 0.00 | 65 | 1024.3 | |
| 20260501232528 | 38 | 0.0 | 0.0 | 0.00 | 0.00 | 0.00 | 65 | 1024.3 | |
| 20260501231525 | 38 | 0.0 | 0.0 | 0.00 | 0.00 | 0.00 | 65 | 1024.3 | |
| 20260501230536 | 38 | 0.0 | 0.0 | 0.00 | 0.00 | 0.00 | 64 | 1024.3 | |
| 20260501225524 | 38 | 0.0 | 0.0 | 0.00 | 0.00 | 0.00 | 64 | 1024.3 | |
| 20260501224531 | 38 | 0.0 | 0.0 | 0.00 | 0.00 | 0.00 | 63 | 1024.3 | |
| 20260501223536 | 39 | 0.0 | 0.0 | 0.00 | 0.00 | 0.00 | 63 | 1024.3 | |
| 20260501222530 | 38 | 0.0 | 0.0 | 0.00 | 0.00 | 0.00 | 61 | 1023.2 | |
| 20260501221534 | 38 | 0.0 | 0.0 | 0.00 | 0.00 | 0.00 | 60 | 1023.4 | |
| 20260501220526 | 39 | 0.0 | 0.0 | 0.00 | 0.00 | 0.00 | 59 | 1024.3 | |
| 20260501215529 | 39 | 0.0 | 0.0 | 0.00 | 0.00 | 0.00 | 58 | 1024.3 | |
| 20260501214622 | 39 | 0.0 | 0.0 | 0.00 | 0.00 | 0.00 | 58 | 1024.3 | |
| 20260501213527 | 40 | 0.0 | 0.0 | 0.00 | 0.00 | 0.00 | 58 | 1024.3 | |
| 20260501212532 | 40 | 0.0 | 0.0 | 0.00 | 0.00 | 0.00 | 58 | 1024.3 | |
| 20260501211524 | 40 | 0.0 | 0.0 | 0.00 | 0.00 | 0.00 | 58 | 1024.3 | |
| 20260501210527 | 41 | 0.0 | 0.0 | 0.00 | 0.00 | 0.00 | 59 | 1024.3 | |
| 20260501205540 | 41 | 0.0 | 0.0 | 0.00 | 0.00 | 0.00 | 59 | 1024.3 | |
| 20260501204524 | 41 | 0.0 | 0.0 | 0.00 | 0.00 | 0.00 | 57 | 1024.3 | |
| 20260501203530 | 41 | 0.0 | 0.0 | 0.00 | 0.00 | 0.00 | 58 | 1024.3 | |
| 20260501202524 | 41 | 0.0 | 0.0 | 0.00 | 0.00 | 0.00 | 57 | 1024.3 | |
| 20260501201525 | 42 | 0.0 | 0.0 | 0.00 | 0.00 | 0.00 | 57 | 1024.3 | |
| 20260501200530 | 42 | 0.0 | 0.0 | 0.00 | 0.00 | 0.00 | 56 | 1024.3 | |
| 20260501195547 | 43 | 0.0 | 0.0 | 0.00 | 0.00 | 0.00 | 55 | 1024.3 | |
| 20260501194528 | 44 | 0.0 | 0.0 | 0.00 | 0.00 | 0.00 | 54 | 1024.3 | |
| 20260501193524 | 45 | 0.0 | 0.0 | 0.00 | 0.00 | 0.00 | 53 | 1024.3 | |
| 20260501192527 | 46 | 0.0 | 0.0 | 0.00 | 0.00 | 0.00 | 52 | 1024.3 | |
| 20260501191542 | 46 | 0.0 | 0.0 | 0.00 | 0.00 | 0.00 | 49 | 1024.5 | |
| 20260501190634 | 48 | 0.0 | 0.0 | 0.00 | 0.00 | 0.00 | 46 | 1025.4 | |
| 20260501185526 | 49 | 0.0 | 0.0 | 0.00 | 0.00 | 0.00 | 45 | 1025.4 | |
| 20260501184529 | 51 | 0.0 | 0.0 | 0.00 | 0.00 | 0.00 | 42 | 1025.3 | |
| 20260501183524 | 52 | 0.0 | 0.0 | 0.00 | 0.00 | 0.00 | 41 | 1024.3 | |
| 20260501182540 | 54 | 0.0 | 0.0 | 0.00 | 0.00 | 0.00 | 40 | 1024.3 | |
| 20260501181532 | 55 | 0.0 | 0.0 | 0.00 | 0.00 | 0.00 | 39 | 1024.5 | |
| 20260501180544 | 56 | 0.0 | 0.0 | 0.00 | 0.00 | 0.00 | 39 | 1025.4 | |
| 20260501175547 | 57 | 0.0 | 0.0 | 0.00 | 0.00 | 0.00 | 39 | 1024.3 | |
| 20260501174546 | 58 | 0.0 | 0.0 | 0.00 | 0.00 | 0.00 | 38 | 1024.5 | |
| 20260501173558 | 59 | 0.0 | 0.0 | 0.00 | 0.00 | 0.00 | 37 | 1025.4 | |
| 20260501171527 | 60 | 0.0 | 0.0 | 0.00 | 0.00 | 0.00 | 36 | 1025.4 | |
| 20260501170525 | 60 | 0.0 | 0.0 | 0.00 | 0.00 | 0.00 | 36 | 1025.4 | |
| 20260501165534 | 60 | 0.0 | 0.0 | 0.00 | 0.00 | 0.00 | 36 | 1025.4 | |
| 20260501164536 | 60 | 0.0 | 0.0 | 0.00 | 0.00 | 0.00 | 36 | 1025.4 | |
| 20260501163531 | 60 | 0.0 | 0.0 | 0.00 | 0.00 | 0.00 | 36 | 1025.4 |